EGAC/BHD METAR and TAF weather

Enter ICAO airport designator
Station Type Date Time Source
EGAC METAR 2020/12/01 20:50 UTC NOAA

EGAC 012050Z AUTO VRB03KT 9999 OVC017/// 08/07 Q1025


Station Type Date Time Source
EGAC Decoded METAR 2020/12/01 20:50 UTC NOAA

Belfast / Harbour, United Kingdom (EGAC) 54-36N 005-53W 0M
Dec 01, 2020 - 03:50 PM EST / 2020.12.01 2050 UTC
Wind: Variable at 3 MPH (3 KT):0
Visibility: greater than 7 mile(s):0
Sky conditions: overcast
Temperature: 46 F (8 C)
Dew Point: 44 F (7 C)
Relative Humidity: 93%
Pressure (altimeter): 30.27 in. Hg (1025 hPa)
ob: EGAC 012050Z AUTO VRB03KT 9999 OVC017/// 08/07 Q1025
cycle: 21

Station Type Date Time Source
EGAC TAF UTC NOAA

Error!

Example: see airport list